Haydenville, MA (01039)

8:33 AM EDT on July 01, 2015 (GMT -0400)
East Guinea Road | | Change Station
CLOSE
Current Station
Personal Weather Station
Location: Conway, MA
Elevation: 1020 ft
Nearby Weather Stations

Elev 1020 ft 42.46 °N, 72.74 °W | Updated 1 second ago

Overcast
Overcast
64.9 °F
Feels Like 64.9 °F
N
0.0
Wind Variable Wind from ENE
Gusts 0.0 mph

Today
High -- | Low -- °F
--% Chance of Precip.
Yesterday
High -- | Low -- °F
Precip. -- in
5:17 AM 8:31 PM
Full, 100% visible
Pressure 29.77 in
Visibility 10.0 miles
Clouds Few 800 ft
Scattered Clouds 1800 ft
Mostly Cloudy 3200 ft
Overcast 4400 ft
Dew Point 62 °F
Humidity 89%
Rainfall 0.67 in
Snow Depth Not available.
UV 1 out of 12
Pollen .60 out of 12
Air Quality Not available.
Flu Activity Not available.
SPECI KCEF 011218Z 10001KT 10SM FEW008 SCT018 BKN032 OVC044 19/17 A2977 RMK AO2A

More Conditions Fewer Conditions

Pressure 29.77 in
Visibility 10.0 miles
Clouds Few 800 ft
Scattered Clouds 1800 ft
Mostly Cloudy 3200 ft
Overcast 4400 ft
Dew Point 62 °F
Humidity 89%
Rainfall 0.67 in
Snow Depth Not available.
UV 1 out of 12
Pollen .60 out of 12
Air Quality Not available.
Flu Activity Not available.
SPECI KCEF 011218Z 10001KT 10SM FEW008 SCT018 BKN032 OVC044 19/17 A2977 RMK AO2A

More Conditions Fewer Conditions

10-Day Weather Forecast

×

Almanac

Astronomy

Jul. 01, 2015 Rise Set
Actual Time
Civil Twilight
Nautical Twilight
Astronomical Twilight
Moon
Length of Visible Light
Length of Day
Tomorrow will be .
, % of the Moon is Illuminated

Today's Extremes

State Highs State Lows

Community

WunderPhotos

Upload Photos

1,834,184 photos uploaded!

WunderBlogs® & News

Nearby

Air Quality

  Air Quality AQ Index Pollutant
Not available.

Snow Depth

Station Depth Elevation

Earthquake Activity

City Distance Mag. Time & Date
Minimum magnitude displayed is 2.5.

Coastal Water Temperatures

Place Temperature

Stations

Nearby Weather Stations

Station Location Temp. Windchill Dew Point Humidity Wind Precip. Elev Updated Type